createdAt,value
2018-09-03T00:00:49.119Z,5.40
2018-09-03T00:03:18.067Z,5.37
2018-09-03T00:05:47.010Z,5.97
2018-09-03T00:08:16.226Z,5.57
2018-09-03T00:10:45.274Z,5.90
2018-09-03T00:13:14.144Z,5.97
2018-09-03T00:15:43.068Z,5.90
2018-09-03T00:18:11.987Z,6.53
2018-09-03T00:20:40.920Z,6.40
2018-09-03T00:23:09.894Z,6.60
2018-09-03T00:25:38.810Z,6.80
2018-09-03T00:28:07.751Z,6.33
2018-09-03T00:30:36.721Z,6.13
2018-09-03T00:35:14.126Z,6.53
2018-09-03T00:37:48.565Z,6.30
2018-09-03T00:40:22.798Z,6.67
2018-09-03T00:42:57.027Z,7.40
2018-09-03T00:45:31.334Z,6.50
2018-09-03T00:48:01.740Z,6.93
2018-09-03T00:50:30.662Z,7.13
2018-09-03T00:52:59.579Z,6.47
2018-09-03T00:55:28.518Z,7.10
2018-09-03T00:57:57.487Z,7.27
2018-09-03T01:00:26.422Z,7.00
2018-09-03T01:02:55.390Z,7.50
2018-09-03T01:05:24.334Z,7.33
2018-09-03T01:07:53.303Z,7.00
2018-09-03T01:10:22.256Z,7.23
2018-09-03T01:12:51.202Z,7.83
2018-09-03T01:15:20.134Z,7.30
2018-09-03T01:17:49.058Z,8.00
2018-09-03T01:20:17.982Z,7.73
2018-09-03T01:22:46.915Z,8.60
2018-09-03T01:25:15.858Z,7.67
2018-09-03T01:27:44.771Z,7.30
2018-09-03T01:30:13.706Z,7.87
2018-09-03T01:32:42.666Z,8.00
2018-09-03T01:35:11.587Z,8.20
2018-09-03T01:37:40.550Z,7.33
2018-09-03T01:40:09.503Z,6.80
2018-09-03T01:42:38.467Z,8.10
2018-09-03T01:45:07.429Z,8.27
2018-09-03T01:47:36.338Z,7.83
2018-09-03T01:50:05.325Z,7.13
2018-09-03T01:52:34.279Z,7.50
2018-09-03T01:55:03.214Z,7.70
2018-09-03T01:57:32.186Z,7.30
2018-09-03T02:00:01.110Z,8.03
2018-09-03T02:02:30.051Z,7.97
2018-09-03T02:04:58.988Z,7.03
2018-09-03T02:07:27.902Z,7.23
2018-09-03T02:09:56.879Z,7.20
2018-09-03T02:12:25.854Z,7.80
2018-09-03T02:14:55.023Z,7.60
2018-09-03T02:17:23.899Z,7.03
2018-09-03T02:19:52.835Z,7.73
2018-09-03T02:22:21.780Z,6.93
2018-09-03T02:24:50.739Z,7.90
2018-09-03T02:27:19.682Z,7.77
2018-09-03T02:29:48.627Z,8.20
2018-09-03T02:32:17.562Z,8.67
2018-09-03T02:34:46.504Z,9.63
2018-09-03T02:37:15.482Z,9.50
2018-09-03T02:39:44.442Z,8.70
2018-09-03T02:42:13.395Z,8.70
2018-09-03T02:44:42.326Z,9.40
2018-09-03T02:47:11.317Z,9.17
2018-09-03T02:49:40.283Z,8.23
2018-09-03T02:52:09.218Z,8.60
2018-09-03T02:54:38.419Z,8.37
2018-09-03T02:57:07.343Z,8.93
2018-09-03T02:59:36.277Z,8.07
2018-09-03T03:02:05.291Z,8.37
2018-09-03T03:04:34.221Z,8.77
2018-09-03T03:07:03.155Z,8.33
2018-09-03T03:09:32.136Z,8.80
2018-09-03T03:12:01.069Z,9.00
2018-09-03T03:14:30.043Z,8.17
2018-09-03T03:16:59.002Z,8.40
2018-09-03T03:19:27.973Z,8.47
2018-09-03T03:21:56.865Z,8.67
2018-09-03T03:24:25.811Z,8.80
2018-09-03T03:26:54.810Z,10.20
2018-09-03T03:29:23.718Z,9.97
2018-09-03T03:31:52.642Z,10.10
2018-09-03T03:34:21.587Z,9.67
2018-09-03T03:36:50.921Z,9.57
2018-09-03T03:39:19.839Z,9.97
2018-09-03T03:41:48.817Z,9.13
2018-09-03T03:44:17.731Z,9.23
2018-09-03T03:46:46.704Z,9.67
2018-09-03T03:49:15.719Z,9.67
2018-09-03T03:51:44.654Z,9.67
2018-09-03T03:54:13.594Z,8.97
2018-09-03T03:56:42.521Z,9.80
2018-09-03T03:59:11.450Z,9.57
2018-09-03T04:01:40.439Z,9.07
2018-09-03T04:04:09.378Z,9.50
2018-09-03T04:06:38.306Z,9.33
2018-09-03T04:09:08.669Z,9.83
2018-09-03T04:11:37.637Z,9.60
2018-09-03T04:14:06.866Z,9.97
2018-09-03T04:16:35.963Z,10.20
2018-09-03T04:19:05.040Z,10.23
2018-09-03T04:21:34.043Z,9.57
2018-09-03T04:24:02.999Z,9.80
2018-09-03T04:26:31.934Z,10.13
2018-09-03T04:29:00.911Z,10.40
2018-09-03T04:31:29.889Z,9.63
2018-09-03T04:33:58.829Z,10.67
2018-09-03T04:36:27.795Z,10.47
2018-09-03T04:38:57.612Z,10.70
2018-09-03T04:41:26.517Z,11.30
2018-09-03T04:43:55.487Z,10.20
2018-09-03T04:46:24.446Z,10.90
2018-09-03T04:48:53.506Z,11.10
2018-09-03T04:51:22.482Z,10.93
2018-09-03T04:53:51.450Z,10.47
2018-09-03T04:56:20.517Z,11.07
2018-09-03T04:58:49.477Z,10.70
2018-09-03T05:01:18.515Z,11.37
2018-09-03T05:03:47.473Z,10.37
2018-09-03T05:06:16.452Z,12.50
2018-09-03T05:08:45.455Z,11.77
2018-09-03T05:11:14.413Z,12.60
2018-09-03T05:13:43.314Z,11.17
2018-09-03T05:16:12.301Z,12.20
2018-09-03T05:18:41.266Z,12.87
2018-09-03T05:21:10.342Z,11.77
2018-09-03T05:23:39.297Z,11.73
2018-09-03T05:26:08.367Z,11.97
2018-09-03T05:28:37.355Z,13.07
2018-09-03T05:31:06.345Z,13.07
2018-09-03T05:33:35.272Z,14.50
2018-09-03T05:36:04.261Z,12.87
2018-09-03T05:38:33.178Z,13.77
2018-09-03T05:41:02.128Z,13.57
2018-09-03T05:43:31.056Z,13.27
2018-09-03T05:46:00.025Z,13.47
2018-09-03T05:48:29.030Z,12.50
2018-09-03T05:50:58.024Z,12.90
2018-09-03T05:53:26.972Z,14.23
2018-09-03T05:55:56.043Z,13.40
2018-09-03T05:58:25.020Z,14.27
2018-09-03T06:00:54.048Z,14.23
2018-09-03T06:03:23.019Z,14.07
2018-09-03T06:05:51.933Z,14.63
2018-09-03T06:08:20.873Z,14.63
2018-09-03T06:10:49.805Z,15.13
2018-09-03T06:13:18.730Z,14.73
2018-09-03T06:15:47.773Z,14.83
2018-09-03T06:18:16.707Z,14.90
2018-09-03T06:20:45.706Z,14.07
2018-09-03T06:23:14.710Z,14.90
2018-09-03T06:25:43.686Z,14.27
2018-09-03T06:28:12.673Z,14.40
2018-09-03T06:30:41.644Z,15.50
2018-09-03T06:33:10.639Z,14.17
2018-09-03T06:35:39.592Z,15.40
2018-09-03T06:38:08.518Z,14.30
2018-09-03T06:40:37.460Z,15.90
2018-09-03T06:43:06.414Z,14.60
2018-09-03T06:45:35.537Z,15.17
2018-09-03T06:48:04.457Z,17.47
2018-09-03T06:50:33.418Z,15.20
2018-09-03T06:53:02.381Z,16.10
2018-09-03T06:55:31.414Z,15.00
2018-09-03T06:58:00.362Z,15.40
2018-09-03T07:00:29.340Z,15.70
2018-09-03T07:02:58.454Z,15.30
2018-09-03T07:05:27.368Z,16.37
2018-09-03T07:07:56.295Z,16.13
2018-09-03T07:10:25.231Z,15.67
2018-09-03T07:12:54.148Z,15.70
2018-09-03T07:15:23.097Z,16.90
2018-09-03T07:17:52.023Z,19.07
2018-09-03T07:20:21.007Z,15.13
2018-09-03T07:22:49.950Z,15.00
2018-09-03T07:25:18.910Z,16.37
2018-09-03T07:27:47.886Z,15.57
2018-09-03T07:30:16.834Z,15.13
2018-09-03T07:32:45.782Z,15.37
2018-09-03T07:35:14.806Z,16.83
2018-09-03T07:37:43.638Z,16.20
2018-09-03T07:40:12.594Z,15.50
2018-09-03T07:42:41.553Z,16.17
2018-09-03T07:45:10.498Z,15.10
2018-09-03T07:47:39.507Z,16.43
2018-09-03T07:50:08.388Z,17.00
2018-09-03T07:52:37.351Z,16.10
2018-09-03T07:55:06.329Z,17.30
2018-09-03T07:57:35.313Z,16.37
2018-09-03T08:00:04.594Z,15.37
2018-09-03T08:02:33.554Z,15.17
2018-09-03T08:05:02.533Z,16.23
2018-09-03T08:07:31.447Z,17.37
2018-09-03T08:10:00.386Z,18.43
2018-09-03T08:12:29.296Z,15.93
2018-09-03T08:14:58.219Z,17.10
2018-09-03T08:17:27.133Z,17.20
2018-09-03T08:19:56.066Z,17.37
2018-09-03T08:22:25.027Z,17.27
2018-09-03T08:24:54.278Z,17.20
2018-09-03T08:27:23.247Z,16.67
2018-09-03T08:29:52.216Z,17.03
2018-09-03T08:32:21.182Z,18.53
2018-09-03T08:34:50.093Z,17.67
2018-09-03T08:37:19.070Z,16.53
2018-09-03T08:39:48.057Z,18.20
2018-09-03T08:42:17.826Z,17.60
2018-09-03T08:44:46.820Z,18.43
2018-09-03T08:47:15.721Z,18.10
2018-09-03T08:49:44.696Z,18.40
2018-09-03T08:52:13.618Z,17.90
2018-09-03T08:54:42.535Z,18.80
2018-09-03T08:57:11.547Z,18.60
2018-09-03T08:59:40.495Z,20.60
2018-09-03T09:02:09.462Z,19.13
2018-09-03T09:04:38.408Z,19.50
2018-09-03T09:07:07.391Z,19.40
2018-09-03T09:09:36.327Z,17.77
2018-09-03T09:12:05.315Z,20.87
2018-09-03T09:14:34.189Z,20.20
2018-09-03T09:17:03.124Z,19.40
2018-09-03T09:19:32.062Z,20.00
2018-09-03T09:22:00.998Z,20.00
2018-09-03T09:24:29.920Z,21.17
2018-09-03T09:26:58.841Z,19.60
2018-09-03T09:29:27.782Z,19.53
2018-09-03T09:31:56.737Z,20.40
2018-09-03T09:34:25.702Z,19.63
2018-09-03T09:36:54.694Z,20.20
2018-09-03T09:39:23.612Z,18.10
2018-09-03T09:41:53.540Z,18.47
2018-09-03T09:44:22.493Z,18.93
2018-09-03T09:46:51.430Z,18.33
2018-09-03T09:49:20.562Z,19.70
2018-09-03T09:51:49.583Z,17.07
2018-09-03T09:54:18.564Z,18.20
2018-09-03T09:56:47.494Z,16.90
2018-09-03T09:59:16.426Z,17.83
2018-09-03T10:01:45.374Z,16.63
2018-09-03T10:04:14.306Z,15.57
2018-09-03T10:06:43.306Z,18.37
2018-09-03T10:09:12.240Z,17.20
2018-09-03T10:11:41.223Z,16.07
2018-09-03T10:14:10.146Z,16.60
2018-09-03T10:16:39.103Z,16.40
2018-09-03T10:19:08.213Z,16.43
2018-09-03T10:21:37.135Z,15.53
2018-09-03T10:24:06.055Z,16.77
2018-09-03T10:26:34.965Z,17.83
2018-09-03T10:29:04.191Z,16.43
2018-09-03T10:31:33.103Z,16.40
2018-09-03T10:34:02.025Z,17.30
2018-09-03T10:36:30.966Z,16.23
2018-09-03T10:38:59.944Z,16.40
2018-09-03T10:41:28.869Z,17.20
2018-09-03T10:43:58.105Z,17.63
2018-09-03T10:46:27.067Z,16.13
2018-09-03T10:48:56.043Z,15.67
2018-09-03T10:51:25.020Z,15.63
2018-09-03T10:53:53.965Z,16.03
2018-09-03T10:56:22.941Z,13.40
2018-09-03T10:58:51.870Z,13.67
2018-09-03T11:01:20.795Z,15.20
2018-09-03T11:03:49.727Z,14.40
2018-09-03T11:06:18.675Z,14.83
2018-09-03T11:08:47.678Z,14.90
2018-09-03T11:11:16.643Z,13.93
2018-09-03T11:13:45.588Z,15.07
2018-09-03T11:16:14.557Z,14.43
2018-09-03T11:18:43.521Z,15.20
2018-09-03T11:21:12.481Z,14.60
2018-09-03T11:23:41.385Z,14.33
2018-09-03T11:26:10.429Z,15.70
2018-09-03T11:28:39.397Z,15.60
2018-09-03T11:31:08.309Z,14.40
2018-09-03T11:33:37.217Z,14.50
2018-09-03T11:36:06.150Z,13.90
2018-09-03T11:38:35.107Z,15.30
2018-09-03T11:41:04.062Z,14.90
2018-09-03T11:43:33.091Z,15.03
2018-09-03T11:46:02.133Z,14.67
2018-09-03T11:48:31.102Z,15.37
2018-09-03T11:51:00.046Z,14.30
2018-09-03T11:53:29.063Z,15.33
2018-09-03T11:55:58.219Z,14.07
2018-09-03T11:58:27.158Z,15.30
2018-09-03T12:00:57.758Z,15.47
2018-09-03T12:03:26.707Z,16.23
2018-09-03T12:05:55.744Z,15.70
2018-09-03T12:08:24.654Z,15.90
2018-09-03T12:10:53.578Z,16.33
2018-09-03T12:13:22.497Z,17.30
2018-09-03T12:16:10.222Z,17.17
2018-09-03T12:18:40.266Z,17.30
2018-09-03T12:21:09.263Z,17.07
2018-09-03T12:23:38.201Z,18.57
2018-09-03T12:26:07.520Z,17.90
2018-09-03T12:28:36.434Z,19.53
2018-09-03T12:31:05.587Z,18.50
2018-09-03T12:33:34.689Z,19.10
2018-09-03T12:36:04.212Z,17.70
2018-09-03T12:38:33.441Z,18.30
2018-09-03T12:41:02.397Z,19.30
2018-09-03T12:43:31.386Z,18.93
2018-09-03T12:46:01.653Z,19.90
2018-09-03T12:48:31.160Z,19.00
2018-09-03T12:51:01.017Z,19.57
2018-09-03T12:53:30.438Z,19.83
2018-09-03T12:55:59.453Z,18.37
2018-09-03T12:58:28.386Z,19.60
2018-09-03T13:00:57.469Z,20.30
2018-09-03T13:03:26.285Z,20.03
2018-09-03T13:05:55.221Z,19.40
2018-09-03T13:08:24.155Z,19.93
2018-09-03T13:10:53.138Z,21.17
2018-09-03T13:13:22.092Z,21.87
2018-09-03T13:15:51.051Z,22.47
2018-09-03T13:18:19.984Z,22.00
2018-09-03T13:20:48.942Z,23.17
2018-09-03T13:23:17.840Z,22.20
2018-09-03T13:25:46.757Z,22.60
2018-09-03T13:28:15.712Z,23.33
2018-09-03T13:30:44.694Z,23.03
2018-09-03T13:33:13.686Z,24.03
2018-09-03T13:35:42.665Z,23.20
2018-09-03T13:38:11.726Z,22.80
2018-09-03T13:40:40.726Z,23.53
2018-09-03T13:43:09.686Z,23.50
2018-09-03T13:45:38.641Z,21.43
2018-09-03T13:48:07.672Z,21.20
2018-09-03T13:50:36.587Z,22.53
2018-09-03T13:53:05.523Z,21.73
2018-09-03T13:55:34.546Z,22.70
2018-09-03T13:58:03.494Z,22.17
2018-09-03T14:00:32.416Z,20.90
2018-09-03T14:03:01.338Z,24.90
2018-09-03T14:05:30.289Z,21.40
2018-09-03T14:07:59.343Z,23.33
2018-09-03T14:10:28.280Z,21.00
2018-09-03T14:12:57.211Z,23.33
2018-09-03T14:15:26.165Z,23.40
2018-09-03T14:17:55.120Z,23.83
2018-09-03T14:20:24.320Z,24.67
2018-09-03T14:22:53.270Z,24.83
2018-09-03T14:25:22.239Z,24.40
2018-09-03T14:27:51.250Z,23.73
2018-09-03T14:30:20.168Z,23.70
2018-09-03T14:32:49.132Z,24.20
2018-09-03T14:35:18.164Z,24.73
2018-09-03T14:37:47.129Z,22.57
2018-09-03T14:40:16.056Z,24.33
2018-09-03T14:42:45.194Z,24.50
2018-09-03T14:45:14.311Z,24.40
2018-09-03T14:47:43.368Z,23.00
2018-09-03T14:50:12.370Z,24.23
2018-09-03T14:52:41.812Z,22.93
2018-09-03T14:55:10.938Z,24.07
2018-09-03T14:57:40.276Z,24.20
2018-09-03T15:00:09.475Z,25.90
2018-09-03T15:02:38.796Z,25.57
2018-09-03T15:05:07.798Z,25.70
2018-09-03T15:07:36.808Z,25.83
2018-09-03T15:10:05.863Z,28.10
2018-09-03T15:12:34.782Z,26.50
2018-09-03T15:15:03.861Z,25.47
2018-09-03T15:17:32.770Z,26.67
2018-09-03T15:20:01.693Z,27.30
2018-09-03T15:22:30.623Z,25.33
2018-09-03T15:24:59.563Z,25.57
2018-09-03T15:27:28.514Z,25.00
2018-09-03T15:29:57.438Z,24.33
2018-09-03T15:32:26.611Z,25.23
2018-09-03T15:34:55.553Z,26.60
2018-09-03T15:37:24.486Z,25.90
2018-09-03T15:39:53.437Z,27.27
2018-09-03T15:42:22.381Z,25.80
2018-09-03T15:44:51.310Z,25.50
2018-09-03T15:47:20.253Z,24.93
2018-09-03T15:49:49.226Z,25.40
2018-09-03T15:52:18.126Z,26.30
2018-09-03T15:54:47.066Z,25.43
2018-09-03T15:57:16.208Z,24.40
2018-09-03T15:59:45.497Z,27.60
2018-09-03T16:02:14.482Z,25.70
2018-09-03T16:04:43.428Z,27.63
2018-09-03T16:07:12.418Z,25.43
2018-09-03T16:09:41.349Z,26.33
2018-09-03T16:12:10.278Z,26.40
2018-09-03T16:14:39.282Z,26.47
2018-09-03T16:17:08.219Z,25.13
2018-09-03T16:19:37.176Z,23.37
2018-09-03T16:22:06.159Z,24.90
2018-09-03T16:24:35.110Z,25.00
2018-09-03T16:27:04.115Z,23.83
2018-09-03T16:29:33.046Z,23.60
2018-09-03T16:32:01.983Z,23.77
2018-09-03T16:34:30.954Z,23.33
2018-09-03T16:37:00.006Z,24.87
2018-09-03T16:39:29.122Z,24.33
2018-09-03T16:41:58.177Z,24.17
2018-09-03T16:44:27.075Z,23.30
2018-09-03T16:46:56.070Z,23.60
2018-09-03T16:49:25.070Z,22.50
2018-09-03T16:51:54.010Z,24.53
2018-09-03T16:54:22.949Z,24.60
2018-09-03T16:56:51.906Z,23.50
2018-09-03T16:59:21.058Z,22.60
2018-09-03T17:01:50.045Z,23.37
2018-09-03T17:04:18.979Z,22.67
2018-09-03T17:06:47.950Z,22.37
2018-09-03T17:09:16.899Z,24.30
2018-09-03T17:11:45.862Z,22.93
2018-09-03T17:14:14.791Z,24.00
2018-09-03T17:16:43.751Z,23.53
2018-09-03T17:19:12.677Z,23.00
2018-09-03T17:21:41.603Z,23.40
2018-09-03T17:24:10.542Z,21.87
2018-09-03T17:26:39.536Z,23.03
2018-09-03T17:29:08.470Z,22.00
2018-09-03T17:31:37.399Z,21.67
2018-09-03T17:34:06.329Z,22.70
2018-09-03T17:36:35.529Z,22.10
2018-09-03T17:39:05.583Z,22.60
2018-09-03T17:41:35.572Z,22.27
2018-09-03T17:44:04.524Z,22.20
2018-09-03T17:46:33.450Z,22.80
2018-09-03T17:49:02.395Z,24.83
2018-09-03T17:51:31.319Z,24.73
2018-09-03T17:54:00.267Z,24.50
2018-09-03T17:56:29.192Z,23.00
2018-09-03T17:58:58.170Z,24.13
2018-09-03T18:01:27.097Z,23.20
2018-09-03T18:03:56.072Z,20.50
2018-09-03T18:06:25.719Z,21.53
2018-09-03T18:08:54.655Z,20.03
2018-09-03T18:11:23.715Z,21.70
2018-09-03T18:13:52.654Z,23.07
2018-09-03T18:16:21.641Z,21.63
2018-09-03T18:18:51.083Z,22.27
2018-09-03T18:21:20.035Z,24.20
2018-09-03T18:23:49.063Z,24.63
2018-09-03T18:26:18.101Z,25.50
2018-09-03T18:28:48.291Z,25.43
2018-09-03T18:31:17.880Z,24.77
2018-09-03T18:33:47.211Z,25.00
2018-09-03T18:36:16.208Z,24.07
2018-09-03T18:38:45.159Z,23.93
2018-09-03T18:41:14.156Z,24.73
2018-09-03T18:43:43.068Z,26.90
2018-09-03T18:46:12.018Z,27.33
2018-09-03T18:48:40.966Z,29.03
2018-09-03T18:51:11.310Z,25.97
2018-09-03T18:53:42.128Z,26.00
2018-09-03T18:56:11.192Z,26.13
2018-09-03T18:58:40.219Z,25.40
2018-09-03T19:01:09.222Z,26.43
2018-09-03T19:03:38.154Z,25.60
2018-09-03T19:06:08.264Z,26.23
2018-09-03T19:08:37.210Z,25.70
2018-09-03T19:11:06.161Z,25.40
2018-09-03T19:13:35.274Z,25.70
2018-09-03T19:16:04.342Z,27.00
2018-09-03T19:18:33.407Z,26.10
2018-09-03T19:21:02.365Z,26.80
2018-09-03T19:23:31.416Z,26.33
2018-09-03T19:26:00.586Z,27.00
2018-09-03T19:28:29.621Z,27.67
2018-09-03T19:30:58.712Z,25.50
2018-09-03T19:33:27.652Z,25.47
2018-09-03T19:35:56.725Z,27.07
2018-09-03T19:38:25.639Z,27.57
2018-09-03T19:40:54.768Z,26.10
2018-09-03T19:43:23.685Z,24.80
2018-09-03T19:45:52.872Z,28.60
2018-09-03T19:48:21.815Z,29.37
2018-09-03T19:50:51.060Z,33.07
2018-09-03T19:53:20.049Z,30.43
2018-09-03T19:55:48.970Z,30.53
2018-09-03T19:58:18.018Z,30.47
2018-09-03T20:00:46.945Z,30.43
2018-09-03T20:03:15.875Z,27.83
2018-09-03T20:05:45.085Z,27.47
2018-09-03T20:08:14.043Z,27.10
2018-09-03T20:10:42.972Z,28.37
2018-09-03T20:13:12.289Z,28.30
2018-09-03T20:15:41.218Z,27.97
2018-09-03T20:18:10.150Z,28.90
2018-09-03T20:20:39.109Z,28.47
2018-09-03T20:23:08.169Z,31.10
2018-09-03T20:25:42.546Z,29.70
2018-09-03T20:28:11.495Z,30.70
2018-09-03T20:30:40.771Z,31.27
2018-09-03T20:33:09.731Z,31.90
2018-09-03T20:35:38.675Z,33.27
2018-09-03T20:38:07.613Z,35.47
2018-09-03T20:40:36.865Z,33.33
2018-09-03T20:43:05.805Z,36.77
2018-09-03T20:45:34.935Z,38.53
2018-09-03T20:48:03.934Z,37.70
2018-09-03T20:50:33.513Z,41.10
2018-09-03T20:53:02.445Z,39.90
2018-09-03T20:55:31.446Z,44.73
2018-09-03T20:58:00.396Z,40.40
2018-09-03T21:00:29.412Z,37.97
2018-09-03T21:02:58.331Z,39.10
2018-09-03T21:05:27.450Z,38.17
2018-09-03T21:07:56.444Z,40.80
2018-09-03T21:10:25.405Z,36.90
2018-09-03T21:12:54.636Z,38.87
2018-09-03T21:15:23.534Z,41.23
2018-09-03T21:17:52.554Z,39.87
2018-09-03T21:20:21.571Z,42.97
2018-09-03T21:22:50.570Z,43.50
2018-09-03T21:25:19.473Z,41.07
2018-09-03T21:27:48.441Z,41.80
2018-09-03T21:30:17.455Z,40.40
2018-09-03T21:32:46.442Z,43.10
2018-09-03T21:35:15.439Z,43.83
2018-09-03T21:37:44.385Z,44.40
2018-09-03T21:40:13.297Z,41.93
2018-09-03T21:42:42.222Z,44.47
2018-09-03T21:45:11.173Z,46.00
2018-09-03T21:47:40.119Z,45.00
2018-09-03T21:50:09.026Z,46.03
2018-09-03T21:52:37.953Z,46.60
2018-09-03T21:55:06.921Z,46.90
2018-09-03T21:57:35.854Z,51.20
2018-09-03T22:00:05.095Z,46.93
2018-09-03T22:02:34.040Z,46.43
2018-09-03T22:05:03.044Z,46.77
2018-09-03T22:07:32.007Z,46.80
2018-09-03T22:10:01.051Z,46.30
2018-09-03T22:12:30.126Z,52.87
2018-09-03T22:14:59.134Z,50.77
2018-09-03T22:17:28.074Z,54.87
2018-09-03T22:19:57.082Z,60.57
2018-09-03T22:22:25.998Z,55.70
2018-09-03T22:24:55.042Z,59.30
2018-09-03T22:27:24.058Z,59.47
2018-09-03T22:29:53.085Z,62.67
2018-09-03T22:32:22.009Z,60.50
2018-09-03T22:34:50.965Z,62.27
2018-09-03T22:37:19.954Z,62.97
2018-09-03T22:39:48.940Z,61.80
2018-09-03T22:42:17.920Z,62.93
2018-09-03T22:44:46.940Z,61.90
2018-09-03T22:47:15.901Z,65.93
2018-09-03T22:49:44.926Z,66.73
2018-09-03T22:52:13.918Z,68.00
2018-09-03T22:54:42.891Z,67.57
2018-09-03T22:57:11.819Z,65.97
2018-09-03T22:59:40.762Z,67.13
2018-09-03T23:02:09.777Z,71.40
2018-09-03T23:04:38.710Z,71.97
2018-09-03T23:07:07.638Z,65.20
2018-09-03T23:09:36.675Z,67.17
2018-09-03T23:12:05.653Z,65.27
2018-09-03T23:14:34.654Z,69.33
2018-09-03T23:17:03.730Z,66.70
2018-09-03T23:19:32.739Z,66.77
2018-09-03T23:22:02.017Z,71.03
2018-09-03T23:24:31.042Z,69.50
2018-09-03T23:26:59.945Z,69.83
2018-09-03T23:29:28.884Z,69.03
2018-09-03T23:31:57.916Z,69.07
2018-09-03T23:34:26.854Z,68.30
2018-09-03T23:36:55.802Z,64.83
2018-09-03T23:39:24.711Z,64.50
2018-09-03T23:41:53.730Z,64.60
2018-09-03T23:44:22.696Z,72.20
2018-09-03T23:46:51.667Z,63.97
2018-09-03T23:49:20.689Z,67.80
2018-09-03T23:51:49.645Z,72.50
2018-09-03T23:54:18.668Z,67.23
2018-09-03T23:56:47.612Z,68.03
2018-09-03T23:59:16.537Z,70.17
